sensor_id;sensor_type;location;lat;lon;timestamp;pressure;altitude;pressure_sealevel;temperature;humidity
49585;BME280;35491;49.142;9.210;2022-09-16T18:11:36;99352.72;;;13.98;70.15
49585;BME280;35491;49.142;9.210;2022-09-16T18:12:38;99350.28;;;13.88;70.23
49585;BME280;35491;49.142;9.210;2022-09-16T18:13:42;99349.66;;;14.01;70.07
49585;BME280;35491;49.142;9.210;2022-09-16T18:14:43;99348.81;;;14.00;70.15
49585;BME280;35491;49.142;9.210;2022-09-16T18:15:47;99349.66;;;14.01;70.45
49585;BME280;35491;49.142;9.210;2022-09-16T18:16:48;99350.66;;;13.85;70.71
49585;BME280;35491;49.142;9.210;2022-09-16T18:17:52;99341.09;;;13.82;70.89
49585;BME280;35491;49.142;9.210;2022-09-16T18:18:54;99348.03;;;13.77;71.30
49585;BME280;35491;49.142;9.210;2022-09-16T18:19:58;99349.91;;;13.76;71.78
49585;BME280;35491;49.142;9.210;2022-09-16T18:21:02;99342.09;;;13.66;71.62
49585;BME280;35491;49.142;9.210;2022-09-16T18:22:04;99340.06;;;13.68;71.69
49585;BME280;35491;49.142;9.210;2022-09-16T18:23:11;99347.47;;;13.66;71.71
49585;BME280;35491;49.142;9.210;2022-09-16T18:24:12;99346.38;;;13.76;71.82
49585;BME280;35491;49.142;9.210;2022-09-16T18:25:16;99344.81;;;13.81;71.15
49585;BME280;35491;49.142;9.210;2022-09-16T18:26:17;99345.53;;;13.75;71.63
49585;BME280;35491;49.142;9.210;2022-09-16T18:27:24;99344.69;;;13.75;71.62
49585;BME280;35491;49.142;9.210;2022-09-16T18:28:28;99345.00;;;13.80;71.78
49585;BME280;35491;49.142;9.210;2022-09-16T18:29:29;99347.97;;;13.85;71.05
49585;BME280;35491;49.142;9.210;2022-09-16T18:30:33;99356.66;;;13.72;71.87
49585;BME280;35491;49.142;9.210;2022-09-16T18:31:34;99354.88;;;13.64;72.06
49585;BME280;35491;49.142;9.210;2022-09-16T18:32:38;99353.28;;;13.55;71.99
49585;BME280;35491;49.142;9.210;2022-09-16T18:33:39;99358.72;;;13.47;72.03
49585;BME280;35491;49.142;9.210;2022-09-16T18:34:43;99360.03;;;13.51;71.93
49585;BME280;35491;49.142;9.210;2022-09-16T18:35:44;99355.97;;;13.55;71.93
49585;BME280;35491;49.142;9.210;2022-09-16T18:36:48;99354.00;;;13.49;71.99
49585;BME280;35491;49.142;9.210;2022-09-16T18:37:51;99347.72;;;13.56;72.05
49585;BME280;35491;49.142;9.210;2022-09-16T18:38:53;99364.84;;;13.55;72.16
49585;BME280;35491;49.142;9.210;2022-09-16T18:39:57;99364.03;;;13.55;72.20
49585;BME280;35491;49.142;9.210;2022-09-16T18:41:02;99367.53;;;13.55;72.44
49585;BME280;35491;49.142;9.210;2022-09-16T18:42:07;99370.78;;;13.51;72.42
49585;BME280;35491;49.142;9.210;2022-09-16T18:43:13;99371.50;;;13.45;73.08
49585;BME280;35491;49.142;9.210;2022-09-16T18:44:18;99376.22;;;13.43;73.52
49585;BME280;35491;49.142;9.210;2022-09-16T18:45:23;99377.91;;;13.35;73.86
49585;BME280;35491;49.142;9.210;2022-09-16T18:46:25;99373.38;;;13.36;73.88
49585;BME280;35491;49.142;9.210;2022-09-16T18:47:29;99373.63;;;13.26;73.89
49585;BME280;35491;49.142;9.210;2022-09-16T18:48:33;99379.09;;;13.33;73.74
49585;BME280;35491;49.142;9.210;2022-09-16T18:49:34;99364.38;;;13.29;73.61
49585;BME280;35491;49.142;9.210;2022-09-16T18:50:38;99363.34;;;13.30;73.49
49585;BME280;35491;49.142;9.210;2022-09-16T18:51:40;99364.38;;;13.29;73.86
49585;BME280;35491;49.142;9.210;2022-09-16T18:52:46;99375.63;;;13.24;73.34
49585;BME280;35491;49.142;9.210;2022-09-16T18:53:47;99374.91;;;13.30;73.28
49585;BME280;35491;49.142;9.210;2022-09-16T18:54:51;99373.78;;;13.24;73.01
49585;BME280;35491;49.142;9.210;2022-09-16T18:55:52;99381.81;;;13.24;72.63
49585;BME280;35491;49.142;9.210;2022-09-16T18:56:57;99378.59;;;13.29;73.23
49585;BME280;35491;49.142;9.210;2022-09-16T18:58:01;99384.06;;;13.44;72.59
49585;BME280;35491;49.142;9.210;2022-09-16T18:59:05;99392.34;;;13.34;72.39
49585;BME280;35491;49.142;9.210;2022-09-16T19:00:10;99382.88;;;13.47;72.04
49585;BME280;35491;49.142;9.210;2022-09-16T19:01:17;99398.88;;;13.40;72.42
49585;BME280;35491;49.142;9.210;2022-09-16T19:02:23;99395.13;;;13.49;72.04
49585;BME280;35491;49.142;9.210;2022-09-16T19:03:27;99399.22;;;13.60;71.60
49585;BME280;35491;49.142;9.210;2022-09-16T19:04:29;99401.72;;;13.62;71.94
49585;BME280;35491;49.142;9.210;2022-09-16T19:05:34;99399.16;;;13.45;71.71
49585;BME280;35491;49.142;9.210;2022-09-16T19:06:35;99394.53;;;13.39;71.86
49585;BME280;35491;49.142;9.210;2022-09-16T19:07:39;99392.25;;;13.51;71.48
49585;BME280;35491;49.142;9.210;2022-09-16T19:08:40;99395.28;;;13.48;71.42
49585;BME280;35491;49.142;9.210;2022-09-16T19:09:44;99397.97;;;13.48;71.53
49585;BME280;35491;49.142;9.210;2022-09-16T19:10:48;99394.41;;;13.55;71.39
49585;BME280;35491;49.142;9.210;2022-09-16T19:11:50;99391.03;;;13.53;71.71
49585;BME280;35491;49.142;9.210;2022-09-16T19:12:55;99383.41;;;13.42;71.39
49585;BME280;35491;49.142;9.210;2022-09-16T19:13:57;99386.94;;;13.43;71.25
49585;BME280;35491;49.142;9.210;2022-09-16T19:15:04;99386.75;;;13.44;71.15
49585;BME280;35491;49.142;9.210;2022-09-16T19:16:08;99385.47;;;13.40;70.98
49585;BME280;35491;49.142;9.210;2022-09-16T19:17:09;99386.75;;;13.44;71.17
49585;BME280;35491;49.142;9.210;2022-09-16T19:18:13;99381.38;;;13.44;71.26
49585;BME280;35491;49.142;9.210;2022-09-16T19:19:15;99386.09;;;13.42;70.87
49585;BME280;35491;49.142;9.210;2022-09-16T19:20:19;99383.72;;;13.47;71.05
49585;BME280;35491;49.142;9.210;2022-09-16T19:21:20;99384.72;;;13.46;70.89
49585;BME280;35491;49.142;9.210;2022-09-16T19:22:24;99381.03;;;13.47;70.67
49585;BME280;35491;49.142;9.210;2022-09-16T19:23:25;99384.59;;;13.39;70.79
49585;BME280;35491;49.142;9.210;2022-09-16T19:24:29;99388.44;;;13.45;70.67
49585;BME280;35491;49.142;9.210;2022-09-16T19:25:33;99376.13;;;13.51;71.19
49585;BME280;35491;49.142;9.210;2022-09-16T19:26:35;99379.41;;;13.61;70.72
49585;BME280;35491;49.142;9.210;2022-09-16T19:27:39;99387.00;;;13.57;70.39
49585;BME280;35491;49.142;9.210;2022-09-16T19:28:43;99388.00;;;13.56;70.29
49585;BME280;35491;49.142;9.210;2022-09-16T19:29:44;99384.91;;;13.68;70.36
49585;BME280;35491;49.142;9.210;2022-09-16T19:30:50;99379.16;;;13.71;69.57
49585;BME280;35491;49.142;9.210;2022-09-16T19:31:52;99381.47;;;13.74;69.80
49585;BME280;35491;49.142;9.210;2022-09-16T19:32:56;99377.22;;;13.80;69.69
49585;BME280;35491;49.142;9.210;2022-09-16T19:33:57;99383.06;;;13.83;69.78
49585;BME280;35491;49.142;9.210;2022-09-16T19:35:01;99388.81;;;13.80;69.53
49585;BME280;35491;49.142;9.210;2022-09-16T19:36:08;99379.91;;;13.80;69.35
49585;BME280;35491;49.142;9.210;2022-09-16T19:37:10;99380.94;;;13.79;69.51
49585;BME280;35491;49.142;9.210;2022-09-16T19:38:14;99375.00;;;13.83;69.68
49585;BME280;35491;49.142;9.210;2022-09-16T19:39:15;99376.97;;;13.89;69.61
49585;BME280;35491;49.142;9.210;2022-09-16T19:40:20;99378.78;;;13.74;69.41
49585;BME280;35491;49.142;9.210;2022-09-16T19:41:22;99377.94;;;13.59;69.86
49585;BME280;35491;49.142;9.210;2022-09-16T19:42:26;99378.28;;;13.55;70.23
49585;BME280;35491;49.142;9.210;2022-09-16T19:43:28;99379.28;;;13.54;70.30
49585;BME280;35491;49.142;9.210;2022-09-16T19:44:32;99372.91;;;13.55;70.32
49585;BME280;35491;49.142;9.210;2022-09-16T19:45:33;99383.66;;;13.55;70.30
49585;BME280;35491;49.142;9.210;2022-09-16T19:46:39;99387.13;;;13.64;70.07
49585;BME280;35491;49.142;9.210;2022-09-16T19:47:42;99383.59;;;13.64;69.77
49585;BME280;35491;49.142;9.210;2022-09-16T19:48:46;99384.25;;;13.66;69.73
49585;BME280;35491;49.142;9.210;2022-09-16T19:49:47;99381.91;;;13.63;70.14
49585;BME280;35491;49.142;9.210;2022-09-16T19:50:51;99393.19;;;13.58;70.17
49585;BME280;35491;49.142;9.210;2022-09-16T19:51:52;99392.38;;;13.57;70.49
49585;BME280;35491;49.142;9.210;2022-09-16T19:52:56;99398.22;;;13.61;70.13
49585;BME280;35491;49.142;9.210;2022-09-16T19:53:57;99396.00;;;13.65;70.40
49585;BME280;35491;49.142;9.210;2022-09-16T19:55:01;99400.34;;;13.66;70.10
49585;BME280;35491;49.142;9.210;2022-09-16T19:56:03;99398.34;;;13.68;70.12
49585;BME280;35491;49.142;9.210;2022-09-16T19:57:07;99399.88;;;13.62;70.28
49585;BME280;35491;49.142;9.210;2022-09-16T19:58:11;99401.44;;;13.56;70.33
49585;BME280;35491;49.142;9.210;2022-09-16T19:59:12;99402.25;;;13.57;70.74
49585;BME280;35491;49.142;9.210;2022-09-16T20:00:16;99406.56;;;13.66;70.48
49585;BME280;35491;49.142;9.210;2022-09-16T20:01:18;99402.97;;;13.74;70.37
49585;BME280;35491;49.142;9.210;2022-09-16T20:02:24;99402.63;;;13.77;70.14
49585;BME280;35491;49.142;9.210;2022-09-16T20:03:27;99401.38;;;13.65;70.08
49585;BME280;35491;49.142;9.210;2022-09-16T20:04:31;99402.38;;;13.64;70.39
49585;BME280;35491;49.142;9.210;2022-09-16T20:05:35;99400.47;;;13.72;70.01
49585;BME280;35491;49.142;9.210;2022-09-16T20:06:36;99401.19;;;13.66;70.21
49585;BME280;35491;49.142;9.210;2022-09-16T20:07:40;99398.50;;;13.66;70.16
49585;BME280;35491;49.142;9.210;2022-09-16T20:08:42;99402.31;;;13.72;69.87
49585;BME280;35491;49.142;9.210;2022-09-16T20:09:46;99403.09;;;13.57;69.73
49585;BME280;35491;49.142;9.210;2022-09-16T20:10:49;99397.91;;;13.56;70.15
49585;BME280;35491;49.142;9.210;2022-09-16T20:11:53;99409.84;;;13.53;69.87
49585;BME280;35491;49.142;9.210;2022-09-16T20:13:04;99410.75;;;13.46;70.05
49585;BME280;35491;49.142;9.210;2022-09-16T20:14:06;99407.88;;;13.47;70.04
49585;BME280;35491;49.142;9.210;2022-09-16T20:15:16;99402.63;;;13.54;70.02
49585;BME280;35491;49.142;9.210;2022-09-16T20:16:18;99402.16;;;13.50;70.27
49585;BME280;35491;49.142;9.210;2022-09-16T20:17:25;99412.78;;;13.44;70.58
49585;BME280;35491;49.142;9.210;2022-09-16T20:18:26;99401.19;;;13.43;70.35
49585;BME280;35491;49.142;9.210;2022-09-16T20:19:30;99403.56;;;13.38;70.69
49585;BME280;35491;49.142;9.210;2022-09-16T20:20:32;99405.94;;;13.33;70.97
49585;BME280;35491;49.142;9.210;2022-09-16T20:21:37;99405.28;;;13.31;70.96
49585;BME280;35491;49.142;9.210;2022-09-16T20:22:41;99410.72;;;13.22;71.43
49585;BME280;35491;49.142;9.210;2022-09-16T20:23:45;99413.75;;;13.19;71.28
49585;BME280;35491;49.142;9.210;2022-09-16T20:24:46;99409.72;;;13.15;71.72
49585;BME280;35491;49.142;9.210;2022-09-16T20:25:53;99417.66;;;13.08;71.89
49585;BME280;35491;49.142;9.210;2022-09-16T20:26:55;99418.31;;;13.10;71.94
49585;BME280;35491;49.142;9.210;2022-09-16T20:28:00;99412.66;;;13.05;71.82
49585;BME280;35491;49.142;9.210;2022-09-16T20:29:01;99422.44;;;12.98;72.13
49585;BME280;35491;49.142;9.210;2022-09-16T20:30:05;99419.22;;;12.94;72.41
49585;BME280;35491;49.142;9.210;2022-09-16T20:31:07;99418.22;;;12.95;72.33
49585;BME280;35491;49.142;9.210;2022-09-16T20:32:11;99415.69;;;13.02;72.13
49585;BME280;35491;49.142;9.210;2022-09-16T20:33:18;99417.34;;;13.03;72.26
49585;BME280;35491;49.142;9.210;2022-09-16T20:34:19;99417.00;;;13.06;72.07
49585;BME280;35491;49.142;9.210;2022-09-16T20:35:23;99427.28;;;13.03;72.53
49585;BME280;35491;49.142;9.210;2022-09-16T20:36:25;99419.06;;;12.96;73.00
49585;BME280;35491;49.142;9.210;2022-09-16T20:37:30;99428.47;;;12.92;72.94
49585;BME280;35491;49.142;9.210;2022-09-16T20:38:32;99423.97;;;12.92;72.89
49585;BME280;35491;49.142;9.210;2022-09-16T20:39:36;99430.47;;;12.98;72.65
49585;BME280;35491;49.142;9.210;2022-09-16T20:40:41;99426.81;;;12.91;72.63
49585;BME280;35491;49.142;9.210;2022-09-16T20:41:44;99429.00;;;12.87;72.95
49585;BME280;35491;49.142;9.210;2022-09-16T20:42:51;99434.69;;;12.92;72.50
49585;BME280;35491;49.142;9.210;2022-09-16T20:43:52;99433.69;;;12.93;72.51
49585;BME280;35491;49.142;9.210;2022-09-16T20:44:56;99433.06;;;12.83;72.55
49585;BME280;35491;49.142;9.210;2022-09-16T20:46:01;99433.69;;;12.85;73.28
49585;BME280;35491;49.142;9.210;2022-09-16T20:47:05;99434.03;;;12.90;72.79
49585;BME280;35491;49.142;9.210;2022-09-16T20:48:09;99429.38;;;12.84;72.56
49585;BME280;35491;49.142;9.210;2022-09-16T20:49:14;99438.28;;;12.76;72.80
49585;BME280;35491;49.142;9.210;2022-09-16T20:50:18;99437.78;;;12.73;72.86
49585;BME280;35491;49.142;9.210;2022-09-16T20:51:19;99431.25;;;12.75;72.42
49585;BME280;35491;49.142;9.210;2022-09-16T20:52:23;99432.06;;;12.76;72.44
49585;BME280;35491;49.142;9.210;2022-09-16T20:53:24;99437.94;;;12.79;72.67
49585;BME280;35491;49.142;9.210;2022-09-16T20:54:28;99435.25;;;12.71;72.47
49585;BME280;35491;49.142;9.210;2022-09-16T20:55:32;99437.31;;;12.69;71.68
49585;BME280;35491;49.142;9.210;2022-09-16T20:56:33;99433.06;;;12.83;71.71
49585;BME280;35491;49.142;9.210;2022-09-16T20:57:37;99442.19;;;12.66;71.03
49585;BME280;35491;49.142;9.210;2022-09-16T20:58:39;99435.78;;;12.67;71.67
49585;BME280;35491;49.142;9.210;2022-09-16T20:59:42;99444.88;;;12.66;70.41
49585;BME280;35491;49.142;9.210;2022-09-16T21:00:44;99444.53;;;12.60;70.82
49585;BME280;35491;49.142;9.210;2022-09-16T21:01:48;99435.34;;;12.55;70.24
49585;BME280;35491;49.142;9.210;2022-09-16T21:02:51;99442.06;;;12.51;70.24
49585;BME280;35491;49.142;9.210;2022-09-16T21:03:55;99440.19;;;12.51;70.03
49585;BME280;35491;49.142;9.210;2022-09-16T21:04:59;99440.19;;;12.51;70.20
49585;BME280;35491;49.142;9.210;2022-09-16T21:06:05;99435.66;;;12.52;70.04
49585;BME280;35491;49.142;9.210;2022-09-16T21:07:06;99443.22;;;12.56;70.00
49585;BME280;35491;49.142;9.210;2022-09-16T21:08:11;99448.22;;;12.59;69.92
49585;BME280;35491;49.142;9.210;2022-09-16T21:09:13;99445.50;;;12.68;69.82
49585;BME280;35491;49.142;9.210;2022-09-16T21:10:18;99448.66;;;12.71;69.77
49585;BME280;35491;49.142;9.210;2022-09-16T21:11:20;99440.34;;;12.58;70.52
49585;BME280;35491;49.142;9.210;2022-09-16T21:12:24;99447.22;;;12.60;70.29
49585;BME280;35491;49.142;9.210;2022-09-16T21:13:28;99444.88;;;12.57;70.48
49585;BME280;35491;49.142;9.210;2022-09-16T21:14:30;99444.91;;;12.49;70.69
49585;BME280;35491;49.142;9.210;2022-09-16T21:15:33;99449.75;;;12.54;71.12
49585;BME280;35491;49.142;9.210;2022-09-16T21:16:35;99454.59;;;12.58;70.93
49585;BME280;35491;49.142;9.210;2022-09-16T21:17:40;99450.94;;;12.51;70.57
49585;BME280;35491;49.142;9.210;2022-09-16T21:18:41;99450.25;;;12.49;70.64
49585;BME280;35491;49.142;9.210;2022-09-16T21:19:45;99452.94;;;12.49;70.70
49585;BME280;35491;49.142;9.210;2022-09-16T21:20:56;99449.41;;;12.57;70.18
49585;BME280;35491;49.142;9.210;2022-09-16T21:22:00;99456.59;;;12.64;70.13
49585;BME280;35491;49.142;9.210;2022-09-16T21:23:03;99457.25;;;12.67;69.91
49585;BME280;35491;49.142;9.210;2022-09-16T21:24:06;99460.97;;;12.66;70.11
49585;BME280;35491;49.142;9.210;2022-09-16T21:25:08;99455.59;;;12.66;69.84
49585;BME280;35491;49.142;9.210;2022-09-16T21:26:13;99450.91;;;12.59;69.88
49585;BME280;35491;49.142;9.210;2022-09-16T21:27:16;99458.66;;;12.46;70.48
49585;BME280;35491;49.142;9.210;2022-09-16T21:28:20;99455.31;;;12.44;70.52
49585;BME280;35491;49.142;9.210;2022-09-16T21:29:21;99468.34;;;12.47;70.61
49585;BME280;35491;49.142;9.210;2022-09-16T21:30:25;99467.38;;;12.40;70.81
49585;BME280;35491;49.142;9.210;2022-09-16T21:31:28;99459.19;;;12.41;71.13
49585;BME280;35491;49.142;9.210;2022-09-16T21:32:32;99458.66;;;12.46;70.96
49585;BME280;35491;49.142;9.210;2022-09-16T21:33:36;99456.66;;;12.31;70.98
49585;BME280;35491;49.142;9.210;2022-09-16T21:34:37;99463.69;;;12.41;71.26
49585;BME280;35491;49.142;9.210;2022-09-16T21:35:51;99459.16;;;12.50;70.99
49585;BME280;35491;49.142;9.210;2022-09-16T21:36:52;99455.97;;;12.54;70.75
49585;BME280;35491;49.142;9.210;2022-09-16T21:37:58;99464.31;;;12.59;70.29
49585;BME280;35491;49.142;9.210;2022-09-16T21:38:59;99459.78;;;12.60;70.55
49585;BME280;35491;49.142;9.210;2022-09-16T21:40:04;99461.47;;;12.53;70.54
49585;BME280;35491;49.142;9.210;2022-09-16T21:41:05;99453.63;;;12.43;71.23
49585;BME280;35491;49.142;9.210;2022-09-16T21:42:09;99459.97;;;12.50;71.04
49585;BME280;35491;49.142;9.210;2022-09-16T21:43:10;99459.31;;;12.56;70.59
49585;BME280;35491;49.142;9.210;2022-09-16T21:44:14;99455.28;;;12.52;71.00
49585;BME280;35491;49.142;9.210;2022-09-16T21:45:20;99457.16;;;12.35;71.34
49585;BME280;35491;49.142;9.210;2022-09-16T21:46:22;99461.34;;;12.38;71.63
49585;BME280;35491;49.142;9.210;2022-09-16T21:47:29;99462.34;;;12.45;71.50
49585;BME280;35491;49.142;9.210;2022-09-16T21:48:30;99461.47;;;12.53;71.02
49585;BME280;35491;49.142;9.210;2022-09-16T21:49:33;99469.38;;;12.46;71.05
49585;BME280;35491;49.142;9.210;2022-09-16T21:50:35;99469.59;;;12.20;72.17
49585;BME280;35491;49.142;9.210;2022-09-16T21:51:50;99463.38;;;12.19;72.49
49585;BME280;35491;49.142;9.210;2022-09-16T21:52:54;99469.44;;;12.13;72.91
49585;BME280;35491;49.142;9.210;2022-09-16T21:53:55;99466.22;;;12.26;72.38
49585;BME280;35491;49.142;9.210;2022-09-16T21:54:59;99476.78;;;12.36;72.07
49585;BME280;35491;49.142;9.210;2022-09-16T21:56:02;99470.06;;;12.31;72.16
49585;BME280;35491;49.142;9.210;2022-09-16T21:57:06;99471.41;;;12.44;71.95
49585;BME280;35491;49.142;9.210;2022-09-16T21:58:10;99467.84;;;12.52;71.30
49585;BME280;35491;49.142;9.210;2022-09-16T21:59:11;99465.50;;;12.57;71.34
49585;BME280;35491;49.142;9.210;2022-09-16T22:00:15;99468.00;;;12.58;70.97
49585;BME280;35491;49.142;9.210;2022-09-16T22:01:18;99467.00;;;12.59;71.13
49585;BME280;35491;49.142;9.210;2022-09-16T22:02:23;99473.84;;;12.62;71.16
49585;BME280;35491;49.142;9.210;2022-09-16T22:03:26;99463.31;;;12.60;71.13
49585;BME280;35491;49.142;9.210;2022-09-16T22:04:28;99471.16;;;12.62;71.14
49585;BME280;35491;49.142;9.210;2022-09-16T22:05:32;99473.03;;;12.61;71.07
49585;BME280;35491;49.142;9.210;2022-09-16T22:06:35;99471.00;;;12.63;71.05
49585;BME280;35491;49.142;9.210;2022-09-16T22:07:41;99472.69;;;12.64;70.85
49585;BME280;35491;49.142;9.210;2022-09-16T22:08:42;99475.72;;;12.53;70.96
49585;BME280;35491;49.142;9.210;2022-09-16T22:09:46;99474.03;;;12.60;70.82
49585;BME280;35491;49.142;9.210;2022-09-16T22:10:56;99474.03;;;12.60;70.65
49585;BME280;35491;49.142;9.210;2022-09-16T22:11:59;99473.84;;;12.62;70.53
49585;BME280;35491;49.142;9.210;2022-09-16T22:13:02;99472.19;;;12.61;70.72
49585;BME280;35491;49.142;9.210;2022-09-16T22:14:05;99477.56;;;12.53;70.75
49585;BME280;35491;49.142;9.210;2022-09-16T22:15:10;99472.22;;;12.44;70.60
49585;BME280;35491;49.142;9.210;2022-09-16T22:16:12;99479.06;;;12.47;70.73
49585;BME280;35491;49.142;9.210;2022-09-16T22:17:17;99478.75;;;12.42;70.77
49585;BME280;35491;49.142;9.210;2022-09-16T22:18:18;99477.75;;;12.43;70.88
49585;BME280;35491;49.142;9.210;2022-09-16T22:19:22;99479.75;;;12.41;70.90
49585;BME280;35491;49.142;9.210;2022-09-16T22:20:23;99483.31;;;12.41;70.75
49585;BME280;35491;49.142;9.210;2022-09-16T22:21:27;99481.44;;;12.42;70.62
49585;BME280;35491;49.142;9.210;2022-09-16T22:22:29;99484.13;;;12.33;71.33
49585;BME280;35491;49.142;9.210;2022-09-16T22:23:36;99482.16;;;12.27;71.43
49585;BME280;35491;49.142;9.210;2022-09-16T22:24:38;99482.13;;;12.19;72.00
49585;BME280;35491;49.142;9.210;2022-09-16T22:25:42;99481.16;;;12.04;72.59
49585;BME280;35491;49.142;9.210;2022-09-16T22:26:43;99478.81;;;12.00;72.96
49585;BME280;35491;49.142;9.210;2022-09-16T22:27:47;99480.16;;;12.05;73.23
49585;BME280;35491;49.142;9.210;2022-09-16T22:28:48;99479.47;;;12.11;72.93
49585;BME280;35491;49.142;9.210;2022-09-16T22:29:52;99479.31;;;12.21;72.33
49585;BME280;35491;49.142;9.210;2022-09-16T22:31:02;99487.19;;;12.14;72.87
49585;BME280;35491;49.142;9.210;2022-09-16T22:32:06;99483.81;;;12.12;73.13
49585;BME280;35491;49.142;9.210;2022-09-16T22:33:08;99487.69;;;12.01;73.71
49585;BME280;35491;49.142;9.210;2022-09-16T22:34:12;99485.34;;;12.06;73.40
49585;BME280;35491;49.142;9.210;2022-09-16T22:35:14;99482.66;;;11.98;73.88
49585;BME280;35491;49.142;9.210;2022-09-16T22:36:18;99480.44;;;11.93;74.07
49585;BME280;35491;49.142;9.210;2022-09-16T22:37:21;99478.28;;;11.80;74.70
49585;BME280;35491;49.142;9.210;2022-09-16T22:38:24;99481.13;;;11.87;74.49
49585;BME280;35491;49.142;9.210;2022-09-16T22:39:28;99473.81;;;11.97;74.26
49585;BME280;35491;49.142;9.210;2022-09-16T22:40:32;99471.22;;;11.96;73.86
49585;BME280;35491;49.142;9.210;2022-09-16T22:41:34;99471.59;;;11.93;74.19
49585;BME280;35491;49.142;9.210;2022-09-16T22:42:37;99476.59;;;11.88;74.60
49585;BME280;35491;49.142;9.210;2022-09-16T22:43:39;99479.94;;;11.90;74.59
49585;BME280;35491;49.142;9.210;2022-09-16T22:44:43;99473.41;;;11.76;75.24
49585;BME280;35491;49.142;9.210;2022-09-16T22:45:44;99473.09;;;11.79;75.05
49585;BME280;35491;49.142;9.210;2022-09-16T22:46:48;99474.41;;;11.83;75.10
49585;BME280;35491;49.142;9.210;2022-09-16T22:47:52;99475.41;;;11.74;75.21
49585;BME280;35491;49.142;9.210;2022-09-16T22:48:53;99481.28;;;11.77;75.25
49585;BME280;35491;49.142;9.210;2022-09-16T22:49:57;99477.09;;;11.75;75.25
49585;BME280;35491;49.142;9.210;2022-09-16T22:50:59;99483.44;;;11.74;75.77
49585;BME280;35491;49.142;9.210;2022-09-16T22:52:03;99473.75;;;11.73;75.68
49585;BME280;35491;49.142;9.210;2022-09-16T22:53:04;99472.75;;;11.74;75.68
49585;BME280;35491;49.142;9.210;2022-09-16T22:54:09;99470.06;;;11.74;75.96
49585;BME280;35491;49.142;9.210;2022-09-16T22:55:13;99471.91;;;11.73;75.64
49585;BME280;35491;49.142;9.210;2022-09-16T22:56:18;99476.41;;;11.64;75.86
49585;BME280;35491;49.142;9.210;2022-09-16T22:57:19;99477.09;;;11.58;76.51
49585;BME280;35491;49.142;9.210;2022-09-16T22:58:23;99476.41;;;11.64;76.49
49585;BME280;35491;49.142;9.210;2022-09-16T22:59:24;99481.94;;;11.71;76.32
49585;BME280;35491;49.142;9.210;2022-09-16T23:00:28;99472.72;;;11.57;76.91
49585;BME280;35491;49.142;9.210;2022-09-16T23:01:31;99473.41;;;11.59;76.85
49585;BME280;35491;49.142;9.210;2022-09-16T23:02:35;99476.72;;;11.53;77.08
49585;BME280;35491;49.142;9.210;2022-09-16T23:03:37;99480.28;;;11.70;76.41
49585;BME280;35491;49.142;9.210;2022-09-16T23:04:41;99474.91;;;11.70;76.20
49585;BME280;35491;49.142;9.210;2022-09-16T23:05:52;99475.28;;;11.75;75.70
49585;BME280;35491;49.142;9.210;2022-09-16T23:06:53;99469.38;;;11.63;76.12
49585;BME280;35491;49.142;9.210;2022-09-16T23:07:57;99472.41;;;11.68;76.00
49585;BME280;35491;49.142;9.210;2022-09-16T23:08:58;99478.78;;;11.76;75.99
49585;BME280;35491;49.142;9.210;2022-09-16T23:10:03;99479.09;;;11.73;75.66
49585;BME280;35491;49.142;9.210;2022-09-16T23:11:07;99471.75;;;11.66;76.21
49585;BME280;35491;49.142;9.210;2022-09-16T23:12:12;99475.72;;;11.54;76.42
49585;BME280;35491;49.142;9.210;2022-09-16T23:13:16;99482.63;;;11.65;76.44
49585;BME280;35491;49.142;9.210;2022-09-16T23:14:18;99485.44;;;11.71;75.99
49585;BME280;35491;49.142;9.210;2022-09-16T23:15:25;99485.44;;;11.63;75.85
49585;BME280;35491;49.142;9.210;2022-09-16T23:16:28;99490.13;;;11.53;76.95
49585;BME280;35491;49.142;9.210;2022-09-16T23:17:32;99489.13;;;11.62;76.20
49585;BME280;35491;49.142;9.210;2022-09-16T23:18:34;99485.94;;;11.67;76.37
49585;BME280;35491;49.142;9.210;2022-09-16T23:19:39;99487.31;;;11.71;76.08
49585;BME280;35491;49.142;9.210;2022-09-16T23:20:40;99483.44;;;11.65;76.14
49585;BME280;35491;49.142;9.210;2022-09-16T23:21:44;99486.13;;;11.65;75.75
49585;BME280;35491;49.142;9.210;2022-09-16T23:22:45;99483.28;;;11.67;75.97
49585;BME280;35491;49.142;9.210;2022-09-16T23:23:49;99479.78;;;11.66;75.89
49585;BME280;35491;49.142;9.210;2022-09-16T23:24:51;99480.09;;;11.63;75.78
49585;BME280;35491;49.142;9.210;2022-09-16T23:25:54;99477.91;;;11.59;76.39
49585;BME280;35491;49.142;9.210;2022-09-16T23:26:58;99477.09;;;11.58;75.91
49585;BME280;35491;49.142;9.210;2022-09-16T23:28:02;99484.59;;;11.46;76.37
49585;BME280;35491;49.142;9.210;2022-09-16T23:29:04;99490.28;;;11.43;76.87
49585;BME280;35491;49.142;9.210;2022-09-16T23:30:09;99483.44;;;11.49;76.59
49585;BME280;35491;49.142;9.210;2022-09-16T23:31:12;99477.41;;;11.47;76.70
49585;BME280;35491;49.142;9.210;2022-09-16T23:32:16;99475.72;;;11.54;76.44
49585;BME280;35491;49.142;9.210;2022-09-16T23:33:20;99483.94;;;11.52;75.94
49585;BME280;35491;49.142;9.210;2022-09-16T23:34:23;99475.22;;;11.50;75.99
49585;BME280;35491;49.142;9.210;2022-09-16T23:35:26;99476.91;;;11.51;75.94
49585;BME280;35491;49.142;9.210;2022-09-16T23:36:29;99478.75;;;11.51;76.21
49585;BME280;35491;49.142;9.210;2022-09-16T23:37:30;99476.38;;;11.31;76.81
49585;BME280;35491;49.142;9.210;2022-09-16T23:38:34;99480.03;;;11.30;76.72
49585;BME280;35491;49.142;9.210;2022-09-16T23:39:36;99483.53;;;11.22;77.08
49585;BME280;35491;49.142;9.210;2022-09-16T23:40:39;99479.06;;;11.31;77.19
49585;BME280;35491;49.142;9.210;2022-09-16T23:41:41;99480.72;;;11.24;77.12
49585;BME280;35491;49.142;9.210;2022-09-16T23:42:48;99477.34;;;11.14;77.70
49585;BME280;35491;49.142;9.210;2022-09-16T23:43:50;99481.03;;;11.21;77.68
49585;BME280;35491;49.142;9.210;2022-09-16T23:44:54;99477.13;;;11.07;77.84
49585;BME280;35491;49.142;9.210;2022-09-16T23:45:55;99481.31;;;11.10;78.09
49585;BME280;35491;49.142;9.210;2022-09-16T23:46:59;99477.97;;;11.07;77.78